Time;durP1;ratioP1;P1;durP2;ratioP2;P2;SDS_P1;SDS_P2;PMS_P1;PMS_P2;Temp;Humidity;BMP_temperature;BMP_pressure;BME280_temperature;BME280_humidity;BME280_pressure;Samples;Min_cycle;Max_cycle;Signal;HPM_P1;HPM_P2
2023/09/14 00:00:01;;;;;;;5.82;5.20;;;;;;;18.94;72.55;97029.25;6276663;22;20023;-79
2023/09/14 00:02:28;;;;;;;5.88;5.25;;;;;;;18.98;72.13;97032.25;6276458;22;20019;-79
2023/09/14 00:04:56;;;;;;;7.53;5.43;;;;;;;19.03;72.17;97024.44;6276507;22;20024;-79
2023/09/14 00:07:23;;;;;;;4.90;4.40;;;;;;;19.09;72.21;97023.56;6276251;22;20504;-78
2023/09/14 00:09:51;;;;;;;6.07;5.22;;;;;;;19.11;71.67;97024.13;6276152;22;20019;-79
2023/09/14 00:12:20;;;;;;;6.43;5.82;;;;;;;19.07;71.45;97032.75;6276779;22;20030;-79
2023/09/14 00:14:48;;;;;;;7.10;6.15;;;;;;;19.02;71.50;97033.41;6277665;22;20023;-78
2023/09/14 00:17:15;;;;;;;6.38;5.65;;;;;;;18.98;71.41;97032.25;6292100;22;20038;-78
2023/09/14 00:19:43;;;;;;;6.30;5.70;;;;;;;18.97;71.88;97035.13;6301987;22;20024;-78
2023/09/14 00:22:10;;;;;;;6.63;6.00;;;;;;;18.92;71.85;97033.94;6301522;22;20011;-77
2023/09/14 00:24:39;;;;;;;6.60;5.88;;;;;;;18.89;72.02;97039.69;6300798;22;20070;-79
2023/09/14 00:27:06;;;;;;;6.07;5.47;;;;;;;18.89;72.16;97041.50;6300307;22;20012;-79
2023/09/14 00:29:35;;;;;;;9.63;5.68;;;;;;;18.86;72.37;97037.47;6287408;22;20031;-79
2023/09/14 00:32:03;;;;;;;7.70;5.88;;;;;;;18.83;72.63;97043.22;6277023;22;20023;-79
2023/09/14 00:34:31;;;;;;;6.40;5.65;;;;;;;18.82;72.62;97044.22;6275608;22;20023;-79
2023/09/14 00:36:58;;;;;;;5.85;5.10;;;;;;;18.84;72.84;97046.66;6276348;22;20094;-79
2023/09/14 00:39:26;;;;;;;5.88;5.32;;;;;;;18.88;72.76;97042.53;6275620;22;20016;-79
2023/09/14 00:41:54;;;;;;;5.80;5.03;;;;;;;18.94;72.56;97042.47;6275860;22;20024;-79
2023/09/14 00:44:21;;;;;;;5.72;5.13;;;;;;;19.02;72.53;97049.28;6275906;22;20058;-79
2023/09/14 00:46:50;;;;;;;5.82;5.30;;;;;;;19.11;72.39;97047.09;6276125;22;20069;-79
2023/09/14 00:49:18;;;;;;;6.10;5.38;;;;;;;19.19;72.08;97043.34;6276213;22;20100;-79
2023/09/14 00:51:46;;;;;;;7.68;6.45;;;;;;;19.25;71.55;97047.72;6276222;22;20020;-79
2023/09/14 00:54:15;;;;;;;6.80;5.82;;;;;;;19.25;71.63;97042.44;6275561;22;20032;-78
2023/09/14 00:56:42;;;;;;;7.82;6.72;;;;;;;19.25;71.63;97042.44;6276060;22;20051;-78
2023/09/14 00:59:10;;;;;;;8.20;6.68;;;;;;;19.22;71.56;97035.78;6275961;22;20051;-79
2023/09/14 01:01:38;;;;;;;8.75;6.45;;;;;;;19.21;71.77;97041.28;6276220;22;20016;-79
2023/09/14 01:04:07;;;;;;;8.30;6.90;;;;;;;19.21;71.96;97039.44;6275760;22;20107;-79
2023/09/14 01:06:35;;;;;;;7.15;6.45;;;;;;;19.22;71.86;97038.41;6276459;22;20023;-79
2023/09/14 01:09:05;;;;;;;6.72;6.03;;;;;;;19.22;72.06;97042.88;6276123;22;20020;-79
2023/09/14 01:11:32;;;;;;;8.35;5.90;;;;;;;19.25;72.20;97037.97;6275851;22;20081;-79
2023/09/14 01:14:10;;;;;;;7.78;6.50;;;;;;;19.28;72.24;97048.06;6275657;22;20074;-80
2023/09/14 01:16:45;;;;;;;7.00;6.30;;;;;;;19.30;72.09;97048.66;6275668;22;20460;-80
2023/09/14 01:19:38;;;;;;;9.90;7.43;;;;;;;19.31;72.22;97047.63;6275685;22;20098;-79
2023/09/14 01:22:23;;;;;;;8.02;7.05;;;;;;;19.31;72.12;97044.19;6275642;22;20016;-79
2023/09/14 01:24:58;;;;;;;8.20;6.72;;;;;;;19.30;71.83;97051.31;6275711;22;20080;-78
2023/09/14 01:27:27;;;;;;;8.10;6.80;;;;;;;19.29;71.83;97049.69;6275898;22;20069;-80
2023/09/14 01:29:58;;;;;;;7.15;6.13;;;;;;;19.30;71.85;97053.16;6275774;22;20090;-78
2023/09/14 01:32:26;;;;;;;8.40;7.50;;;;;;;19.29;71.68;97054.19;6277271;22;20023;-79
2023/09/14 01:34:54;;;;;;;7.45;6.65;;;;;;;19.27;71.78;97056.25;6277717;22;20026;-80
2023/09/14 01:37:24;;;;;;;8.77;7.85;;;;;;;19.27;71.67;97058.91;6277333;22;20026;-79
2023/09/14 01:39:53;;;;;;;10.32;7.30;;;;;;;19.27;71.51;97061.53;6277494;22;20023;-79
2023/09/14 01:42:22;;;;;;;8.45;7.40;;;;;;;19.23;71.77;97063.81;6277640;22;20097;-79
2023/09/14 01:44:52;;;;;;;10.38;8.25;;;;;;;19.20;71.73;97055.53;6277667;22;20019;-79
2023/09/14 01:47:19;;;;;;;8.32;7.30;;;;;;;19.19;71.63;97064.50;6277354;22;20077;-79
2023/09/14 01:49:47;;;;;;;8.95;6.65;;;;;;;19.21;72.18;97057.94;6277720;22;20095;-77
2023/09/14 01:52:14;;;;;;;9.23;7.80;;;;;;;19.22;71.81;97059.56;6277989;22;20054;-79
2023/09/14 01:54:42;;;;;;;11.65;8.15;;;;;;;19.20;71.34;97053.72;6278123;22;20023;-79
2023/09/14 01:57:10;;;;;;;10.07;7.88;;;;;;;19.16;71.25;97060.47;6278164;22;20098;-79
2023/09/14 01:59:37;;;;;;;10.98;9.10;;;;;;;19.12;71.44;97054.00;6278694;22;20016;-79
2023/09/14 02:02:06;;;;;;;10.27;8.38;;;;;;;19.09;71.53;97062.41;6278842;22;20055;-78
2023/09/14 02:04:34;;;;;;;9.65;8.60;;;;;;;19.05;71.49;97054.09;6278495;22;20019;-81
2023/09/14 02:07:02;;;;;;;9.73;8.48;;;;;;;19.03;71.52;97050.09;6278190;22;20024;-78
2023/09/14 02:09:29;;;;;;;8.00;7.20;;;;;;;19.04;71.58;97054.31;6277740;22;20500;-79
2023/09/14 02:11:57;;;;;;;8.52;7.53;;;;;;;19.06;71.50;97049.63;6277214;22;20492;-79
2023/09/14 02:14:24;;;;;;;13.93;9.48;;;;;;;19.07;71.12;97056.53;6276827;22;20031;-79
2023/09/14 02:16:52;;;;;;;11.27;9.35;;;;;;;19.06;70.98;97055.72;6278233;22;20453;-79
2023/09/14 02:19:21;;;;;;;12.00;8.85;;;;;;;19.05;70.79;97058.59;6277091;22;20023;-79
2023/09/14 02:21:49;;;;;;;12.48;9.45;;;;;;;19.04;70.99;97052.47;6276759;22;20038;-79
2023/09/14 02:24:16;;;;;;;10.27;8.93;;;;;;;19.04;70.83;97051.69;6277118;22;20069;-79
2023/09/14 02:26:44;;;;;;;12.55;10.32;;;;;;;19.02;70.87;97051.09;6276952;22;20026;-79
2023/09/14 02:29:11;;;;;;;12.77;9.43;;;;;;;18.98;71.06;97053.41;6277265;22;20081;-78
2023/09/14 02:31:39;;;;;;;10.55;9.00;;;;;;;18.93;71.12;97056.72;6277134;22;20020;-79
2023/09/14 02:34:07;;;;;;;8.70;7.80;;;;;;;18.95;71.63;97053.84;6277097;22;20065;-79
2023/09/14 02:36:36;;;;;;;10.45;9.35;;;;;;;18.96;71.26;97055.47;6277395;22;20081;-79
2023/09/14 02:39:04;;;;;;;13.02;9.40;;;;;;;18.99;71.03;97048.91;6276397;22;20020;-79
2023/09/14 02:41:32;;;;;;;12.15;10.43;;;;;;;18.99;70.59;97049.72;6276977;22;20042;-79
2023/09/14 02:44:00;;;;;;;10.75;8.52;;;;;;;18.98;70.20;97050.75;6276662;22;20074;-79
2023/09/14 02:46:27;;;;;;;8.90;8.00;;;;;;;19.00;70.91;97050.50;6277148;22;20028;-79
2023/09/14 02:48:55;;;;;;;10.48;8.77;;;;;;;19.01;70.59;97054.78;6276824;22;20054;-79
2023/09/14 02:51:22;;;;;;;10.85;9.07;;;;;;;19.01;70.07;97052.13;6277546;22;20027;-79
2023/09/14 02:53:51;;;;;;;10.82;8.88;;;;;;;19.00;70.03;97061.09;6276748;22;20024;-79
2023/09/14 02:56:19;;;;;;;10.82;8.68;;;;;;;19.04;70.42;97062.25;6276608;22;20023;-79
2023/09/14 02:58:46;;;;;;;9.98;8.00;;;;;;;19.06;70.20;97055.72;6276990;22;20481;-79
2023/09/14 03:01:14;;;;;;;15.00;10.00;;;;;;;19.05;69.52;97064.69;6276417;22;20016;-79
2023/09/14 03:03:42;;;;;;;12.60;9.70;;;;;;;19.03;69.47;97060.66;6276337;22;20019;-79
2023/09/14 03:06:10;;;;;;;10.20;8.85;;;;;;;18.99;69.45;97070.06;6277366;22;20020;-79
2023/09/14 03:08:37;;;;;;;10.25;8.75;;;;;;;18.96;69.39;97065.19;6276264;22;20512;-79
2023/09/14 03:11:06;;;;;;;9.63;7.93;;;;;;;18.97;69.84;97066.84;6276924;22;20023;-79
2023/09/14 03:13:34;;;;;;;10.55;8.63;;;;;;;18.98;69.83;97058.69;6276708;22;20057;-78
2023/09/14 03:16:02;;;;;;;12.00;9.88;;;;;;;19.01;69.99;97058.22;6276891;22;20046;-79
2023/09/14 03:18:29;;;;;;;10.02;8.18;;;;;;;19.04;69.80;97062.25;6276962;22;20073;-79
2023/09/14 03:20:57;;;;;;;12.60;9.93;;;;;;;19.06;69.49;97073.41;6276474;22;20016;-79
2023/09/14 03:23:29;;;;;;;12.82;10.25;;;;;;;19.03;69.40;97076.53;6276445;22;20020;-78
2023/09/14 03:25:57;;;;;;;9.37;8.33;;;;;;;19.03;69.48;97074.69;6277474;22;20016;-79
2023/09/14 03:28:26;;;;;;;9.75;7.93;;;;;;;19.04;69.44;97083.41;6276422;22;20431;-78
2023/09/14 03:30:53;;;;;;;9.13;7.97;;;;;;;19.05;69.55;97079.75;6276715;22;20414;-79
2023/09/14 03:33:21;;;;;;;10.23;8.40;;;;;;;19.07;69.59;97082.97;6276008;22;20050;-79
2023/09/14 03:35:48;;;;;;;10.80;8.82;;;;;;;19.05;69.37;97087.69;6276615;22;20089;-78
2023/09/14 03:38:18;;;;;;;10.70;9.25;;;;;;;19.06;69.31;97091.94;6276139;22;20023;-79
2023/09/14 03:40:46;;;;;;;9.73;8.73;;;;;;;19.03;69.42;97090.53;6276798;22;20388;-79
2023/09/14 03:43:14;;;;;;;10.80;8.20;;;;;;;19.02;69.45;97085.47;6275857;22;20023;-79
2023/09/14 03:45:43;;;;;;;10.05;8.88;;;;;;;19.03;69.26;97089.75;6276796;22;20132;-79
2023/09/14 03:48:10;;;;;;;10.65;8.85;;;;;;;19.01;69.41;97089.16;6276905;22;20406;-79
2023/09/14 03:50:38;;;;;;;8.30;7.20;;;;;;;19.01;69.63;97097.09;6277011;22;20099;-79
2023/09/14 03:53:06;;;;;;;10.23;8.93;;;;;;;19.04;69.84;97093.97;6275655;22;20335;-79
2023/09/14 03:55:33;;;;;;;11.95;8.77;;;;;;;19.05;69.85;97095.63;6276566;22;20132;-79
2023/09/14 03:58:01;;;;;;;10.63;9.38;;;;;;;19.07;69.96;97110.22;6276412;22;20070;-79
2023/09/14 04:00:29;;;;;;;11.75;9.68;;;;;;;19.04;70.30;97099.28;6277800;22;20027;-79
2023/09/14 04:02:58;;;;;;;11.60;9.82;;;;;;;19.01;70.93;97102.38;6276729;22;20046;-77
2023/09/14 04:05:26;;;;;;;11.70;9.13;;;;;;;19.00;71.17;97106.03;6277517;22;20020;-80
2023/09/14 04:07:54;;;;;;;12.07;9.25;;;;;;;19.00;71.37;97101.56;6276328;22;20024;-79
2023/09/14 04:10:21;;;;;;;10.30;7.82;;;;;;;18.99;71.27;97096.50;6276391;22;20085;-79
2023/09/14 04:12:50;;;;;;;9.10;8.15;;;;;;;18.99;71.53;97099.16;6276183;22;20032;-79
2023/09/14 04:15:18;;;;;;;7.18;6.47;;;;;;;19.00;71.70;97100.75;6276372;22;20019;-79
2023/09/14 04:17:46;;;;;;;10.68;7.85;;;;;;;19.04;71.82;97107.19;6276146;22;20030;-78
2023/09/14 04:20:15;;;;;;;12.48;9.13;;;;;;;19.05;71.80;97100.91;6275908;22;20011;-79
2023/09/14 04:22:43;;;;;;;10.32;8.38;;;;;;;19.05;71.69;97112.28;6275735;22;20080;-79
2023/09/14 04:25:10;;;;;;;9.45;8.50;;;;;;;19.05;71.65;97106.19;6276178;22;20020;-79
2023/09/14 04:27:38;;;;;;;8.85;7.93;;;;;;;19.07;71.64;97104.13;6276175;22;20027;-79
2023/09/14 04:30:08;;;;;;;10.43;8.23;;;;;;;19.08;71.59;97111.03;6277833;22;20390;-78
2023/09/14 04:32:36;;;;;;;9.68;7.70;;;;;;;19.08;71.30;97109.19;6277181;22;20022;-79
2023/09/14 04:35:03;;;;;;;10.38;7.57;;;;;;;19.10;71.21;97111.59;6277452;22;20027;-78
2023/09/14 04:37:32;;;;;;;8.18;7.38;;;;;;;19.09;70.91;97113.44;6276873;22;20098;-79
2023/09/14 04:40:00;;;;;;;12.70;8.55;;;;;;;19.07;70.75;97115.50;6276788;22;20086;-79
2023/09/14 04:42:28;;;;;;;9.68;7.95;;;;;;;19.04;70.69;97112.50;6276157;22;20019;-79
2023/09/14 04:44:55;;;;;;;10.63;7.80;;;;;;;19.02;71.15;97117.19;6276080;22;20028;-79
2023/09/14 04:47:23;;;;;;;12.25;7.57;;;;;;;18.99;71.16;97122.94;6275788;22;20099;-79
2023/09/14 04:49:51;;;;;;;11.30;7.97;;;;;;;18.95;71.31;97112.00;6275928;22;20027;-79
2023/09/14 04:52:19;;;;;;;8.82;7.68;;;;;;;18.94;71.34;97116.47;6275736;22;20020;-79
2023/09/14 04:54:48;;;;;;;8.38;7.25;;;;;;;18.96;71.64;97123.38;6275984;22;20152;-79
2023/09/14 04:57:16;;;;;;;9.80;8.20;;;;;;;18.97;71.48;97117.06;6276427;22;20023;-80
2023/09/14 04:59:44;;;;;;;8.02;7.22;;;;;;;18.97;71.26;97122.34;6276020;22;20023;-78
2023/09/14 05:02:11;;;;;;;8.18;6.97;;;;;;;18.93;71.33;97117.53;6276444;22;20047;-79
2023/09/14 05:04:39;;;;;;;7.97;6.70;;;;;;;18.95;71.28;97127.84;6276128;22;20019;-79
2023/09/14 05:07:07;;;;;;;10.60;7.45;;;;;;;18.94;71.22;97127.06;6275794;22;20050;-79
2023/09/14 05:09:34;;;;;;;9.30;7.68;;;;;;;18.93;71.22;97125.44;6276154;22;20020;-79
2023/09/14 05:12:03;;;;;;;8.45;7.53;;;;;;;18.92;71.36;97137.03;6276501;22;20047;-78
2023/09/14 05:14:31;;;;;;;9.05;7.32;;;;;;;18.91;71.11;97130.16;6274521;22;20098;-80
2023/09/14 05:16:58;;;;;;;10.05;7.57;;;;;;;18.91;71.40;97138.09;6274288;22;20090;-80
2023/09/14 05:19:27;;;;;;;11.98;8.05;;;;;;;18.91;71.17;97138.09;6275866;22;20020;-79
2023/09/14 05:21:55;;;;;;;9.30;7.85;;;;;;;18.88;70.94;97138.50;6275493;22;20091;-79
2023/09/14 05:24:22;;;;;;;12.18;9.07;;;;;;;18.84;70.77;97142.63;6275708;22;20099;-78
2023/09/14 05:26:51;;;;;;;9.23;7.78;;;;;;;18.77;70.87;97135.78;6275781;22;20477;-78
2023/09/14 05:29:20;;;;;;;10.70;8.88;;;;;;;18.68;70.71;97138.69;6275239;22;20522;-77
2023/09/14 05:31:47;;;;;;;11.77;8.68;;;;;;;18.61;71.06;97137.16;6275758;22;20027;-78
2023/09/14 05:34:15;;;;;;;9.73;7.75;;;;;;;18.56;71.41;97142.28;6275204;22;20030;-79
2023/09/14 05:36:43;;;;;;;10.85;8.82;;;;;;;18.53;71.54;97136.41;6275627;22;20020;-79
2023/09/14 05:39:11;;;;;;;9.32;8.38;;;;;;;18.49;71.50;97137.88;6274495;22;20026;-78
2023/09/14 05:41:40;;;;;;;9.63;7.68;;;;;;;18.47;71.72;97139.91;6275103;22;20016;-77
2023/09/14 05:44:09;;;;;;;9.68;8.35;;;;;;;18.43;71.49;97137.94;6275890;22;20090;-78
2023/09/14 05:46:38;;;;;;;10.45;7.70;;;;;;;18.40;71.82;97141.84;6276308;22;20020;-78
2023/09/14 05:49:06;;;;;;;10.43;7.47;;;;;;;18.36;72.00;97138.00;6275806;22;20051;-77
2023/09/14 05:51:34;;;;;;;8.88;7.72;;;;;;;18.38;72.15;97143.88;6287647;22;20022;-78
2023/09/14 05:54:02;;;;;;;10.07;7.47;;;;;;;18.39;71.96;97140.22;6277365;22;20388;-77
2023/09/14 05:56:29;;;;;;;9.52;8.40;;;;;;;18.40;72.09;97149.75;6276221;22;20027;-78
2023/09/14 05:58:57;;;;;;;7.63;6.85;;;;;;;18.43;72.42;97145.88;6275534;22;20031;-77
2023/09/14 06:01:24;;;;;;;10.18;7.40;;;;;;;18.47;72.10;97158.41;6277774;22;20030;-78
2023/09/14 06:03:53;;;;;;;7.85;7.05;;;;;;;18.48;72.07;97159.25;6275240;22;20016;-78
2023/09/14 06:06:21;;;;;;;13.20;8.48;;;;;;;18.48;72.03;97149.47;6276834;22;20469;-77
2023/09/14 06:08:49;;;;;;;9.55;8.18;;;;;;;18.48;72.14;97154.75;6275273;22;20024;-74
2023/09/14 06:11:17;;;;;;;12.43;8.80;;;;;;;18.49;72.11;97159.00;6282409;22;20043;-74
2023/09/14 06:13:44;;;;;;;8.90;7.15;;;;;;;18.49;72.39;97159.00;6290586;22;20023;-74
2023/09/14 06:16:12;;;;;;;8.13;6.68;;;;;;;18.52;72.10;97153.31;6289638;22;20023;-78
2023/09/14 06:18:40;;;;;;;9.93;7.07;;;;;;;18.53;71.68;97154.09;6276658;22;20058;-76
2023/09/14 06:21:09;;;;;;;10.50;8.18;;;;;;;18.53;71.42;97162.84;6277127;22;20047;-75
2023/09/14 06:23:36;;;;;;;11.57;8.38;;;;;;;18.48;71.38;97160.06;6276900;22;20098;-76
2023/09/14 06:26:04;;;;;;;9.27;6.78;;;;;;;18.44;71.62;97158.06;6277561;22;20028;-77
2023/09/14 06:28:31;;;;;;;10.95;7.47;;;;;;;18.46;71.67;97161.28;6277418;22;20023;-76
2023/09/14 06:30:59;;;;;;;12.02;7.00;;;;;;;18.51;72.06;97158.81;6291885;22;20020;-79
2023/09/14 06:33:28;;;;;;;8.65;7.75;;;;;;;18.53;71.33;97165.47;6298989;22;20000;-81
2023/09/14 06:36:06;;;;;;;8.82;7.93;;;;;;;18.53;71.29;97167.31;6290204;22;20023;-80
2023/09/14 06:38:36;;;;;;;10.73;8.45;;;;;;;18.54;71.05;97166.28;6296678;22;20073;-81
2023/09/14 06:41:04;;;;;;;9.10;7.82;;;;;;;18.55;71.31;97169.75;6282192;22;20022;-78
2023/09/14 06:43:32;;;;;;;10.45;7.65;;;;;;;18.58;71.20;97167.47;6281899;22;20022;-78
2023/09/14 06:45:59;;;;;;;10.88;8.25;;;;;;;18.56;71.16;97164.22;6277748;22;20024;-80
2023/09/14 06:48:27;;;;;;;11.57;7.65;;;;;;;18.57;70.90;97172.97;6276395;22;20016;-80
2023/09/14 06:50:55;;;;;;;11.35;8.02;;;;;;;18.58;71.08;97171.94;6275492;22;20030;-80
2023/09/14 06:53:22;;;;;;;9.25;8.15;;;;;;;18.59;70.76;97171.72;6274741;22;20094;-80
2023/09/14 06:55:51;;;;;;;14.13;8.93;;;;;;;18.60;70.44;97177.81;6274552;22;20073;-80
2023/09/14 06:58:19;;;;;;;10.45;8.40;;;;;;;18.61;70.34;97174.16;6274241;22;20020;-80
2023/09/14 07:00:47;;;;;;;9.98;8.07;;;;;;;18.61;70.32;97177.59;6274417;22;20034;-80
2023/09/14 07:03:14;;;;;;;8.88;7.68;;;;;;;18.63;70.50;97170.28;6274593;22;20356;-79
2023/09/14 07:05:42;;;;;;;10.57;7.65;;;;;;;18.70;69.92;97183.41;6275243;22;20393;-80
2023/09/14 07:08:10;;;;;;;12.07;7.00;;;;;;;18.77;70.05;97184.16;6277035;22;20020;-80
2023/09/14 07:10:37;;;;;;;10.20;8.13;;;;;;;18.82;69.52;97180.88;6276633;22;20469;-80
2023/09/14 07:13:06;;;;;;;8.85;7.95;;;;;;;18.80;69.53;97175.78;6276222;22;20253;-80
2023/09/14 07:15:34;;;;;;;9.05;7.65;;;;;;;18.80;69.75;97181.09;6276838;22;20020;-80
2023/09/14 07:18:01;;;;;;;13.15;8.60;;;;;;;18.81;69.62;97188.00;6276311;22;20034;-80
2023/09/14 07:20:29;;;;;;;8.93;7.47;;;;;;;18.84;69.90;97184.91;6276460;22;20031;-80
2023/09/14 07:22:57;;;;;;;11.38;8.50;;;;;;;18.87;69.75;97188.94;6276243;22;20043;-80
2023/09/14 07:25:24;;;;;;;10.38;7.68;;;;;;;18.89;69.84;97193.00;6276332;22;20464;-80
2023/09/14 07:27:52;;;;;;;11.52;8.65;;;;;;;18.93;69.71;97188.91;6276181;22;20133;-80
2023/09/14 07:30:21;;;;;;;12.07;8.73;;;;;;;18.96;69.70;97187.63;6276265;22;20075;-80
2023/09/14 07:32:48;;;;;;;11.55;8.02;;;;;;;18.97;69.35;97181.31;6276121;22;20404;-80
2023/09/14 07:35:16;;;;;;;11.15;8.07;;;;;;;18.97;69.39;97185.81;6276497;22;20461;-80
2023/09/14 07:37:44;;;;;;;8.55;7.65;;;;;;;19.00;69.43;97191.47;6275993;22;20469;-81
2023/09/14 07:40:12;;;;;;;10.32;8.10;;;;;;;19.05;69.16;97190.78;6276934;22;20024;-80
2023/09/14 07:42:39;;;;;;;10.85;7.90;;;;;;;19.08;68.87;97195.63;6276179;22;20404;-80
2023/09/14 07:45:08;;;;;;;10.77;8.13;;;;;;;19.08;68.76;97195.63;6276189;22;20544;-80
2023/09/14 07:47:40;;;;;;;9.93;7.90;;;;;;;19.07;69.02;97194.84;6276325;22;20360;-80
2023/09/14 07:50:08;;;;;;;;;;;;;;;19.14;69.17;97202.69;6277276;22;20027;-81
2023/09/14 07:52:36;;;;;;;6.75;6.00;;;;;;;19.17;68.91;97204.88;6276381;22;19915;-82
2023/09/14 07:55:05;;;;;;;9.45;7.80;;;;;;;19.21;68.80;97197.31;6276379;22;20015;-80
2023/09/14 07:57:32;;;;;;;9.40;8.23;;;;;;;19.21;69.02;97206.06;6276630;22;20024;-80
2023/09/14 08:00:00;;;;;;;10.27;7.75;;;;;;;19.21;68.53;97206.06;6276336;22;20409;-80
2023/09/14 08:02:28;;;;;;;9.73;7.95;;;;;;;19.23;68.56;97213.78;6283229;22;20023;-80
2023/09/14 08:04:57;;;;;;;8.98;7.97;;;;;;;19.23;68.62;97208.47;6277056;22;20023;-80
2023/09/14 08:07:27;;;;;;;9.50;8.00;;;;;;;19.24;68.35;97220.66;6277123;22;20062;-80
2023/09/14 08:09:54;;;;;;;12.32;8.50;;;;;;;19.25;68.24;97223.09;6276816;22;20394;-80
2023/09/14 08:12:22;;;;;;;9.63;7.97;;;;;;;19.24;68.27;97225.94;6276422;22;20086;-82
2023/09/14 08:14:50;;;;;;;9.65;8.15;;;;;;;19.26;68.50;97229.19;6276369;22;20053;-80
2023/09/14 08:17:17;;;;;;;8.07;6.60;;;;;;;19.32;68.48;97223.81;6276204;22;20020;-80
2023/09/14 08:19:45;;;;;;;8.60;7.30;;;;;;;19.38;68.32;97234.56;6276659;22;20071;-80
2023/09/14 08:22:14;;;;;;;10.02;8.13;;;;;;;19.46;67.71;97228.94;6277949;22;20020;-84
2023/09/14 08:24:42;;;;;;;10.02;7.20;;;;;;;19.51;67.51;97221.16;6304487;22;20612;-82
2023/09/14 08:27:12;;;;;;;9.48;7.47;;;;;;;19.53;67.15;97219.09;6299102;22;20109;-80
2023/09/14 08:29:39;;;;;;;7.78;6.80;;;;;;;19.53;67.16;97224.41;6278356;22;20408;-80
2023/09/14 08:32:07;;;;;;;9.60;6.80;;;;;;;19.52;67.16;97223.56;6277729;22;20035;-80
2023/09/14 08:34:35;;;;;;;9.02;7.53;;;;;;;19.49;67.08;97228.50;6279144;22;20024;-80
2023/09/14 08:37:03;;;;;;;8.05;7.20;;;;;;;19.50;66.82;97230.13;6278206;22;20023;-80
2023/09/14 08:39:32;;;;;;;7.70;6.18;;;;;;;19.52;67.02;97242.09;6277872;22;20023;-80
2023/09/14 08:42:00;;;;;;;8.05;5.93;;;;;;;19.60;67.37;97235.69;6278582;22;20357;-81
2023/09/14 08:44:33;;;;;;;7.53;6.53;;;;;;;19.67;66.99;97233.75;6277513;22;20020;-80
2023/09/14 08:47:01;;;;;;;8.30;6.30;;;;;;;19.73;65.83;97230.25;6278173;22;20074;-81
2023/09/14 08:49:31;;;;;;;8.35;6.30;;;;;;;19.75;65.20;97228.19;6279128;22;20034;-79
2023/09/14 08:52:00;;;;;;;8.95;6.53;;;;;;;19.81;64.91;97230.97;6279199;22;20085;-80
2023/09/14 08:54:28;;;;;;;8.00;6.07;;;;;;;19.84;64.77;97230.53;6278935;22;20026;-80
2023/09/14 08:56:57;;;;;;;6.20;5.60;;;;;;;19.86;64.91;97229.25;6278630;22;20019;-80
2023/09/14 08:59:27;;;;;;;7.70;6.22;;;;;;;19.92;64.56;97227.56;6278292;22;20642;-80
2023/09/14 09:01:57;;;;;;;9.48;6.10;;;;;;;20.04;64.44;97232.88;6280419;22;20230;-81
2023/09/14 09:04:25;;;;;;;6.85;5.30;;;;;;;20.39;63.19;97227.66;6278661;22;20033;-82
2023/09/14 09:06:54;;;;;;;7.78;5.82;;;;;;;20.56;62.68;97238.38;6279189;22;20060;-80
2023/09/14 09:09:23;;;;;;;5.53;5.03;;;;;;;20.67;62.60;97234.16;6279267;22;20054;-80
2023/09/14 09:11:51;;;;;;;6.47;5.72;;;;;;;20.77;61.59;97231.72;6279633;22;20023;-81
2023/09/14 09:14:20;;;;;;;6.20;5.45;;;;;;;20.90;60.34;97228.84;6278473;22;20495;-80
2023/09/14 09:16:47;;;;;;;7.22;5.32;;;;;;;21.05;59.73;97230.19;6283005;22;20020;-80
2023/09/14 09:19:15;;;;;;;5.93;4.97;;;;;;;21.17;59.38;97225.69;6288167;22;20016;-81
2023/09/14 09:21:43;;;;;;;8.35;5.30;;;;;;;21.25;59.13;97229.81;6279559;22;20102;-80
2023/09/14 09:24:14;;;;;;;5.60;4.78;;;;;;;21.28;59.42;97230.16;6280202;22;20020;-81
2023/09/14 09:26:42;;;;;;;7.45;5.10;;;;;;;21.45;58.70;97234.75;6278703;22;20023;-80
2023/09/14 09:29:17;;;;;;;5.53;4.90;;;;;;;22.52;55.92;97228.69;6279206;22;20027;-81
2023/09/14 09:31:47;;;;;;;7.65;4.47;;;;;;;23.23;53.22;97226.22;6279388;22;20065;-81
2023/09/14 09:34:15;;;;;;;7.13;5.25;;;;;;;23.00;53.16;97229.94;6278887;22;20050;-81
2023/09/14 09:36:43;;;;;;;6.30;5.15;;;;;;;22.67;54.25;97225.44;6279362;22;20026;-81
2023/09/14 09:39:13;;;;;;;5.20;4.57;;;;;;;22.41;55.71;97232.22;6279294;22;20095;-81
2023/09/14 09:41:41;;;;;;;6.10;4.85;;;;;;;22.26;55.93;97226.66;6280187;22;20089;-80
2023/09/14 09:44:10;;;;;;;6.22;5.10;;;;;;;22.42;55.42;97224.00;6279226;22;20070;-80
2023/09/14 09:46:37;;;;;;;5.00;4.47;;;;;;;22.96;53.79;97228.78;6281470;22;20357;-81
2023/09/14 09:49:17;;;;;;;6.45;4.57;;;;;;;23.11;53.23;97227.38;6281179;22;20027;-81
2023/09/14 09:51:46;;;;;;;4.82;4.30;;;;;;;23.00;53.12;97226.44;6281034;22;20187;-81
2023/09/14 09:54:13;;;;;;;6.05;4.18;;;;;;;22.88;53.41;97218.56;6281993;22;20472;-81
2023/09/14 09:56:41;;;;;;;6.72;4.70;;;;;;;22.79;53.59;97220.03;6281764;22;20019;-81
2023/09/14 09:59:13;;;;;;;5.75;4.15;;;;;;;22.72;54.06;97222.88;6282471;22;20077;-80
2023/09/14 10:01:41;;;;;;;5.05;4.50;;;;;;;22.74;53.75;97225.25;6282022;22;20058;-80
2023/09/14 10:04:11;;;;;;;6.80;4.47;;;;;;;22.93;52.70;97223.13;6282059;22;20023;-81
2023/09/14 10:06:40;;;;;;;3.70;3.40;;;;;;;23.94;51.77;97217.44;6281920;22;20020;-81
2023/09/14 10:09:10;;;;;;;5.85;4.05;;;;;;;25.97;46.30;97225.25;6281437;22;20024;-81
2023/09/14 10:11:38;;;;;;;5.72;3.58;;;;;;;26.70;44.73;97217.78;6281316;22;20019;-81
2023/09/14 10:14:13;;;;;;;7.43;4.07;;;;;;;26.58;44.86;97224.50;6284046;22;20024;-81
2023/09/14 10:16:42;;;;;;;6.80;4.63;;;;;;;26.51;44.03;97216.72;6283950;22;20024;-81
2023/09/14 10:19:12;;;;;;;4.45;3.33;;;;;;;27.24;43.50;97220.88;6282421;22;20023;-81
2023/09/14 10:21:42;;;;;;;4.75;4.25;;;;;;;27.84;41.35;97228.91;6282165;22;20020;-80
2023/09/14 10:24:10;;;;;;;5.28;3.88;;;;;;;28.55;39.98;97216.84;6281752;22;20127;-80
2023/09/14 10:26:38;;;;;;;3.88;3.28;;;;;;;28.86;38.95;97221.91;6280811;22;20034;-79
2023/09/14 10:29:07;;;;;;;3.40;3.10;;;;;;;29.34;38.13;97220.06;6281158;22;20024;-79
2023/09/14 10:31:35;;;;;;;4.30;3.70;;;;;;;31.19;35.25;97214.47;6281397;22;20517;-79
2023/09/14 10:34:04;;;;;;;3.25;2.72;;;;;;;32.48;33.02;97209.72;6279834;22;20047;-79
2023/09/14 10:36:34;;;;;;;3.33;2.88;;;;;;;32.50;32.33;97215.59;6281190;22;20030;-79
2023/09/14 10:39:05;;;;;;;3.17;2.42;;;;;;;31.73;33.98;97209.31;6279116;22;20453;-79
2023/09/14 10:41:33;;;;;;;4.43;3.38;;;;;;;30.84;34.25;97203.25;6279088;22;20020;-79
2023/09/14 10:44:01;;;;;;;3.10;2.80;;;;;;;30.01;36.04;97203.03;6278570;22;20077;-79
2023/09/14 10:46:35;;;;;;;3.10;2.85;;;;;;;29.86;35.93;97203.25;6279889;22;20020;-82
2023/09/14 10:49:04;;;;;;;2.95;2.70;;;;;;;29.40;36.98;97201.97;6278934;22;20410;-79
2023/09/14 10:51:33;;;;;;;3.70;2.70;;;;;;;28.97;38.01;97199.22;6278749;22;20357;-79
2023/09/14 10:54:01;;;;;;;3.38;2.83;;;;;;;29.53;36.95;97203.94;6278454;22;20024;-79
2023/09/14 10:56:31;;;;;;;2.92;2.63;;;;;;;30.13;35.20;97198.00;6278926;22;20031;-81
2023/09/14 10:58:59;;;;;;;4.03;2.75;;;;;;;29.79;36.16;97203.63;6278409;22;20023;-79
2023/09/14 11:01:28;;;;;;;3.85;2.50;;;;;;;29.40;36.09;97204.66;6278628;22;20360;-79
2023/09/14 11:04:18;;;;;;;2.53;2.33;;;;;;;28.94;36.92;97200.59;6277591;22;20020;-79
2023/09/14 11:06:51;;;;;;;3.40;2.22;;;;;;;28.88;36.92;97206.31;6278764;22;20058;-80
2023/09/14 11:09:22;;;;;;;2.88;2.45;;;;;;;28.95;36.54;97190.66;6278407;22;20020;-79
2023/09/14 11:11:51;;;;;;;3.20;2.80;;;;;;;29.00;36.50;97197.88;6278485;22;20020;-80
2023/09/14 11:14:25;;;;;;;3.17;2.58;;;;;;;30.08;35.79;97186.50;6277561;22;20020;-79
2023/09/14 11:16:56;;;;;;;2.72;1.92;;;;;;;31.28;34.30;97187.59;6281246;22;20024;-79
2023/09/14 11:19:44;;;;;;;4.63;2.25;;;;;;;31.02;33.58;97182.72;6286495;22;20034;-79
2023/09/14 11:22:27;;;;;;;4.13;2.72;;;;;;;30.60;34.40;97177.28;6284616;22;20019;-79
2023/09/14 11:24:56;;;;;;;6.22;2.80;;;;;;;30.30;34.53;97177.84;6280826;22;20012;-80
2023/09/14 11:27:27;;;;;;;2.80;1.80;;;;;;;30.13;35.13;97172.97;6279922;22;20030;-80
2023/09/14 11:29:56;;;;;;;3.28;2.45;;;;;;;30.75;33.55;97173.53;6281228;22;20249;-80
2023/09/14 11:32:27;;;;;;;3.17;2.40;;;;;;;31.91;32.55;97167.88;6280012;22;20020;-80
2023/09/14 11:34:59;;;;;;;3.65;2.33;;;;;;;33.15;30.50;97169.03;6279687;22;20034;-80
2023/09/14 11:40:12;;;;;;;3.80;2.10;;;;;;;34.62;28.43;97174.72;6281538;22;20035;-81